sensor_id;sensor_type;location;lat;lon;timestamp;pressure;altitude;pressure_sealevel;temperature;humidity
54920;BME280;63804;53.120;8.764;2023-07-20T00:00:53;101365.25;;;17.88;66.33
54920;BME280;63804;53.120;8.764;2023-07-20T00:03:21;101365.78;;;17.92;66.31
54920;BME280;63804;53.120;8.764;2023-07-20T00:05:52;101362.28;;;17.91;66.16
54920;BME280;63804;53.120;8.764;2023-07-20T00:08:19;101362.16;;;17.83;66.34
54920;BME280;63804;53.120;8.764;2023-07-20T00:10:47;101363.28;;;17.90;66.98
54920;BME280;63804;53.120;8.764;2023-07-20T00:13:14;101358.16;;;17.97;66.29
54920;BME280;63804;53.120;8.764;2023-07-20T00:15:43;101353.94;;;17.94;66.21
54920;BME280;63804;53.120;8.764;2023-07-20T00:18:10;101355.91;;;17.92;66.33
54920;BME280;63804;53.120;8.764;2023-07-20T00:20:37;101356.19;;;17.89;66.68
54920;BME280;63804;53.120;8.764;2023-07-20T00:23:05;101353.22;;;17.92;66.44
54920;BME280;63804;53.120;8.764;2023-07-20T00:25:32;101353.94;;;17.94;66.36
54920;BME280;63804;53.120;8.764;2023-07-20T00:28:01;101352.38;;;18.01;66.03
54920;BME280;63804;53.120;8.764;2023-07-20T00:30:29;101348.44;;;17.96;66.52
54920;BME280;63804;53.120;8.764;2023-07-20T00:32:56;101360.31;;;17.93;66.27
54920;BME280;63804;53.120;8.764;2023-07-20T00:35:23;101357.94;;;17.81;66.82
54920;BME280;63804;53.120;8.764;2023-07-20T00:37:50;101362.72;;;17.87;66.86
54920;BME280;63804;53.120;8.764;2023-07-20T00:40:18;101365.41;;;17.77;66.95
54920;BME280;63804;53.120;8.764;2023-07-20T00:42:45;101356.81;;;17.64;67.88
54920;BME280;63804;53.120;8.764;2023-07-20T00:45:12;101371.06;;;17.64;68.07
54920;BME280;63804;53.120;8.764;2023-07-20T00:47:40;101358.50;;;17.55;69.04
54920;BME280;63804;53.120;8.764;2023-07-20T00:50:09;101363.19;;;17.53;69.44
54920;BME280;63804;53.120;8.764;2023-07-20T00:52:37;101368.38;;;17.54;69.66
54920;BME280;63804;53.120;8.764;2023-07-20T00:55:07;101357.69;;;17.45;70.10
54920;BME280;63804;53.120;8.764;2023-07-20T00:57:34;101357.81;;;17.43;70.58
54920;BME280;63804;53.120;8.764;2023-07-20T01:00:02;101359.94;;;17.40;71.18
54920;BME280;63804;53.120;8.764;2023-07-20T01:02:30;101354.16;;;17.35;71.59
54920;BME280;63804;53.120;8.764;2023-07-20T01:04:57;101360.25;;;17.37;72.05
54920;BME280;63804;53.120;8.764;2023-07-20T01:07:31;101356.84;;;17.35;72.17
54920;BME280;63804;53.120;8.764;2023-07-20T01:10:09;101359.41;;;17.36;72.09
54920;BME280;63804;53.120;8.764;2023-07-20T01:12:42;101355.16;;;17.34;72.42
54920;BME280;63804;53.120;8.764;2023-07-20T01:15:10;101355.28;;;17.32;72.97
54920;BME280;63804;53.120;8.764;2023-07-20T01:17:38;101357.13;;;17.41;72.56
54920;BME280;63804;53.120;8.764;2023-07-20T01:20:07;101349.66;;;17.35;72.97
54920;BME280;63804;53.120;8.764;2023-07-20T01:22:51;101352.47;;;17.43;72.74
54920;BME280;63804;53.120;8.764;2023-07-20T01:25:42;101359.94;;;17.40;73.06
54920;BME280;63804;53.120;8.764;2023-07-20T01:31:21;101363.88;;;17.36;73.46
54920;BME280;63804;53.120;8.764;2023-07-20T01:33:52;101371.38;;;17.22;73.64
54920;BME280;63804;53.120;8.764;2023-07-20T01:36:22;101365.44;;;17.09;74.20
54920;BME280;63804;53.120;8.764;2023-07-20T01:38:52;101366.72;;;17.24;73.88
54920;BME280;63804;53.120;8.764;2023-07-20T01:41:20;101362.34;;;17.23;73.85
54920;BME280;63804;53.120;8.764;2023-07-20T01:43:47;101356.31;;;17.21;73.91
54920;BME280;63804;53.120;8.764;2023-07-20T01:46:14;101366.19;;;17.21;73.74
54920;BME280;63804;53.120;8.764;2023-07-20T01:48:42;101359.69;;;17.14;73.56
54920;BME280;63804;53.120;8.764;2023-07-20T01:51:10;101356.03;;;17.15;73.62
54920;BME280;63804;53.120;8.764;2023-07-20T01:53:39;101346.72;;;17.19;73.52
54920;BME280;63804;53.120;8.764;2023-07-20T01:56:06;101357.28;;;17.11;73.16
54920;BME280;63804;53.120;8.764;2023-07-20T01:58:33;101351.50;;;17.15;73.17
54920;BME280;63804;53.120;8.764;2023-07-20T02:01:01;101353.91;;;17.09;74.03
54920;BME280;63804;53.120;8.764;2023-07-20T02:03:29;101354.59;;;17.01;74.10
54920;BME280;63804;53.120;8.764;2023-07-20T02:05:56;101358.56;;;17.07;74.18
54920;BME280;63804;53.120;8.764;2023-07-20T02:08:26;101360.09;;;17.09;74.28
54920;BME280;63804;53.120;8.764;2023-07-20T02:10:53;101365.88;;;17.04;74.66
54920;BME280;63804;53.120;8.764;2023-07-20T02:13:20;101361.66;;;17.02;74.83
54920;BME280;63804;53.120;8.764;2023-07-20T02:15:48;101359.38;;;16.97;74.26
54920;BME280;63804;53.120;8.764;2023-07-20T02:18:16;101346.69;;;16.90;73.91
54920;BME280;63804;53.120;8.764;2023-07-20T02:20:43;101339.09;;;16.85;73.84
54920;BME280;63804;53.120;8.764;2023-07-20T02:23:11;101336.56;;;16.74;73.89
54920;BME280;63804;53.120;8.764;2023-07-20T02:25:40;101335.44;;;16.86;73.58
54920;BME280;63804;53.120;8.764;2023-07-20T02:28:07;101339.66;;;16.89;73.13
54920;BME280;63804;53.120;8.764;2023-07-20T02:30:38;101343.88;;;16.81;73.22
54920;BME280;63804;53.120;8.764;2023-07-20T02:33:07;101346.44;;;16.83;72.62
54920;BME280;63804;53.120;8.764;2023-07-20T02:35:34;101352.19;;;16.88;72.14
54920;BME280;63804;53.120;8.764;2023-07-20T02:38:02;101346.00;;;16.88;72.14
54920;BME280;63804;53.120;8.764;2023-07-20T02:40:30;101355.56;;;16.80;72.77
54920;BME280;63804;53.120;8.764;2023-07-20T02:42:57;101357.13;;;16.83;72.77
54920;BME280;63804;53.120;8.764;2023-07-20T02:45:24;101358.66;;;16.86;72.93
54920;BME280;63804;53.120;8.764;2023-07-20T02:47:52;101361.22;;;16.87;73.03
54920;BME280;63804;53.120;8.764;2023-07-20T02:50:19;101347.13;;;16.85;73.45
54920;BME280;63804;53.120;8.764;2023-07-20T02:52:46;101359.50;;;16.86;73.62
54920;BME280;63804;53.120;8.764;2023-07-20T02:55:14;101356.56;;;16.89;74.37
54920;BME280;63804;53.120;8.764;2023-07-20T02:57:41;101353.03;;;16.89;74.62
54920;BME280;63804;53.120;8.764;2023-07-20T03:00:09;101366.69;;;16.86;75.12
54920;BME280;63804;53.120;8.764;2023-07-20T03:02:38;101357.97;;;16.93;74.88
54920;BME280;63804;53.120;8.764;2023-07-20T03:05:06;101353.47;;;17.03;75.15
54920;BME280;63804;53.120;8.764;2023-07-20T03:07:34;101354.72;;;17.09;74.79
54920;BME280;63804;53.120;8.764;2023-07-20T03:10:01;101355.03;;;17.16;74.51
54920;BME280;63804;53.120;8.764;2023-07-20T03:12:30;101361.38;;;17.15;74.60
54920;BME280;63804;53.120;8.764;2023-07-20T03:14:57;101357.28;;;17.11;74.84
54920;BME280;63804;53.120;8.764;2023-07-20T03:17:24;101361.91;;;17.09;74.98
54920;BME280;63804;53.120;8.764;2023-07-20T03:19:51;101358.97;;;17.12;74.87
54920;BME280;63804;53.120;8.764;2023-07-20T03:22:19;101361.38;;;17.15;74.48
54920;BME280;63804;53.120;8.764;2023-07-20T03:24:48;101355.16;;;17.04;74.42
54920;BME280;63804;53.120;8.764;2023-07-20T03:27:15;101357.72;;;17.06;74.94
54920;BME280;63804;53.120;8.764;2023-07-20T03:29:43;101360.38;;;16.96;74.86
54920;BME280;63804;53.120;8.764;2023-07-20T03:32:11;101354.88;;;16.98;75.16
54920;BME280;63804;53.120;8.764;2023-07-20T03:34:38;101363.63;;;17.00;75.30
54920;BME280;63804;53.120;8.764;2023-07-20T03:37:05;101370.66;;;17.01;75.67
54920;BME280;63804;53.120;8.764;2023-07-20T03:39:33;101362.78;;;16.99;75.28
54920;BME280;63804;53.120;8.764;2023-07-20T03:42:00;101367.84;;;17.02;75.31
54920;BME280;63804;53.120;8.764;2023-07-20T03:44:28;101379.13;;;17.06;74.91
54920;BME280;63804;53.120;8.764;2023-07-20T03:46:56;101378.69;;;17.01;74.76
54920;BME280;63804;53.120;8.764;2023-07-20T03:49:23;101374.31;;;17.00;75.12
54920;BME280;63804;53.120;8.764;2023-07-20T03:51:51;101372.78;;;17.07;74.68
54920;BME280;63804;53.120;8.764;2023-07-20T03:54:18;101375.88;;;17.02;75.22
54920;BME280;63804;53.120;8.764;2023-07-20T03:56:46;101373.47;;;17.09;75.31
54920;BME280;63804;53.120;8.764;2023-07-20T03:59:13;101378.69;;;17.11;75.05
54920;BME280;63804;53.120;8.764;2023-07-20T04:01:41;101376.88;;;17.11;75.06
54920;BME280;63804;53.120;8.764;2023-07-20T04:04:08;101384.19;;;17.19;74.90
54920;BME280;63804;53.120;8.764;2023-07-20T04:06:36;101383.91;;;17.12;74.73
54920;BME280;63804;53.120;8.764;2023-07-20T04:09:03;101387.72;;;17.19;74.47
54920;BME280;63804;53.120;8.764;2023-07-20T04:11:32;101384.34;;;17.17;74.29
54920;BME280;63804;53.120;8.764;2023-07-20T04:13:59;101384.03;;;17.20;74.10
54920;BME280;63804;53.120;8.764;2023-07-20T04:16:26;101385.03;;;17.19;73.85
54920;BME280;63804;53.120;8.764;2023-07-20T04:18:55;101388.81;;;17.17;73.85
54920;BME280;63804;53.120;8.764;2023-07-20T04:21:25;101383.91;;;17.12;74.05
54920;BME280;63804;53.120;8.764;2023-07-20T04:23:52;101389.41;;;17.11;73.98
54920;BME280;63804;53.120;8.764;2023-07-20T04:26:20;101391.38;;;16.99;74.10
54920;BME280;63804;53.120;8.764;2023-07-20T04:28:47;101397.69;;;16.98;74.22
54920;BME280;63804;53.120;8.764;2023-07-20T04:31:16;101389.25;;;17.02;73.79
54920;BME280;63804;53.120;8.764;2023-07-20T04:33:43;101398.56;;;17.08;73.47
54920;BME280;63804;53.120;8.764;2023-07-20T04:36:10;101389.84;;;17.06;73.77
54920;BME280;63804;53.120;8.764;2023-07-20T04:38:37;101388.97;;;17.05;73.74
54920;BME280;63804;53.120;8.764;2023-07-20T04:41:05;101397.56;;;17.09;73.50
54920;BME280;63804;53.120;8.764;2023-07-20T04:43:32;101398.28;;;17.11;73.37
54920;BME280;63804;53.120;8.764;2023-07-20T04:45:59;101399.28;;;17.10;73.59
54920;BME280;63804;53.120;8.764;2023-07-20T04:48:27;101397.16;;;17.14;73.47
54920;BME280;63804;53.120;8.764;2023-07-20T04:50:54;101385.59;;;17.03;73.47
54920;BME280;63804;53.120;8.764;2023-07-20T04:53:22;101404.91;;;17.07;73.60
54920;BME280;63804;53.120;8.764;2023-07-20T04:55:50;101396.56;;;17.00;73.88
54920;BME280;63804;53.120;8.764;2023-07-20T04:58:20;101407.56;;;17.07;73.84
54920;BME280;63804;53.120;8.764;2023-07-20T05:00:48;101403.91;;;17.08;73.52
54920;BME280;63804;53.120;8.764;2023-07-20T05:03:16;101405.59;;;17.09;73.49
54920;BME280;63804;53.120;8.764;2023-07-20T05:05:43;101409.81;;;17.12;73.23
54920;BME280;63804;53.120;8.764;2023-07-20T05:08:14;101409.25;;;17.08;73.46
54920;BME280;63804;53.120;8.764;2023-07-20T05:10:41;101405.31;;;17.02;73.69
54920;BME280;63804;53.120;8.764;2023-07-20T05:13:08;101401.22;;;17.08;73.30
54920;BME280;63804;53.120;8.764;2023-07-20T05:15:35;101398.84;;;17.15;73.03
54920;BME280;63804;53.120;8.764;2023-07-20T05:18:03;101400.53;;;17.16;72.80
54920;BME280;63804;53.120;8.764;2023-07-20T05:20:30;101406.47;;;17.10;73.14
54920;BME280;63804;53.120;8.764;2023-07-20T05:22:59;101408.97;;;17.11;73.05
54920;BME280;63804;53.120;8.764;2023-07-20T05:25:27;101408.00;;;17.12;72.80
54920;BME280;63804;53.120;8.764;2023-07-20T05:27:57;101411.81;;;17.10;72.61
54920;BME280;63804;53.120;8.764;2023-07-20T05:30:24;101421.81;;;17.17;72.30
54920;BME280;63804;53.120;8.764;2023-07-20T05:32:52;101422.38;;;17.21;72.43
54920;BME280;63804;53.120;8.764;2023-07-20T05:35:21;101423.91;;;17.23;72.19
54920;BME280;63804;53.120;8.764;2023-07-20T05:37:49;101414.75;;;17.16;72.32
54920;BME280;63804;53.120;8.764;2023-07-20T05:40:16;101421.38;;;17.12;71.78
54920;BME280;63804;53.120;8.764;2023-07-20T05:42:47;101423.94;;;17.14;71.59
54920;BME280;63804;53.120;8.764;2023-07-20T05:45:19;101424.34;;;17.19;71.59
54920;BME280;63804;53.120;8.764;2023-07-20T05:47:47;101419.72;;;17.21;71.66
54920;BME280;63804;53.120;8.764;2023-07-20T05:50:14;101415.19;;;17.21;71.46
54920;BME280;63804;53.120;8.764;2023-07-20T05:52:41;101427.31;;;17.25;71.07
54920;BME280;63804;53.120;8.764;2023-07-20T05:55:09;101421.97;;;17.25;70.29
54920;BME280;63804;53.120;8.764;2023-07-20T05:57:36;101434.91;;;17.30;70.16
54920;BME280;63804;53.120;8.764;2023-07-20T06:00:07;101430.25;;;17.22;69.61
54920;BME280;63804;53.120;8.764;2023-07-20T06:02:34;101435.06;;;17.19;69.72
54920;BME280;63804;53.120;8.764;2023-07-20T06:05:01;101437.19;;;17.25;68.83
54920;BME280;63804;53.120;8.764;2023-07-20T06:07:29;101438.28;;;17.32;68.71
54920;BME280;63804;53.120;8.764;2023-07-20T06:09:56;101434.38;;;17.36;68.17
54920;BME280;63804;53.120;8.764;2023-07-20T06:12:25;101435.50;;;17.34;67.92
54920;BME280;63804;53.120;8.764;2023-07-20T06:14:52;101439.56;;;17.38;67.88
54920;BME280;63804;53.120;8.764;2023-07-20T06:17:20;101435.22;;;17.37;67.52
54920;BME280;63804;53.120;8.764;2023-07-20T06:19:48;101440.44;;;17.48;67.32
54920;BME280;63804;53.120;8.764;2023-07-20T06:22:15;101438.59;;;17.48;67.18
54920;BME280;63804;53.120;8.764;2023-07-20T06:24:42;101438.59;;;17.48;67.20
54920;BME280;63804;53.120;8.764;2023-07-20T06:27:10;101443.81;;;17.40;67.35
54920;BME280;63804;53.120;8.764;2023-07-20T06:29:37;101447.06;;;17.44;67.25
54920;BME280;63804;53.120;8.764;2023-07-20T06:32:05;101441.69;;;17.53;67.21
54920;BME280;63804;53.120;8.764;2023-07-20T06:34:33;101450.56;;;17.64;66.92
54920;BME280;63804;53.120;8.764;2023-07-20T06:37:04;101450.84;;;17.61;67.17
54920;BME280;63804;53.120;8.764;2023-07-20T06:39:31;101447.88;;;17.54;67.00
54920;BME280;63804;53.120;8.764;2023-07-20T06:42:02;101448.88;;;17.53;66.63
54920;BME280;63804;53.120;8.764;2023-07-20T06:44:29;101447.59;;;17.47;66.74
54920;BME280;63804;53.120;8.764;2023-07-20T06:46:56;101449.16;;;17.50;66.61
54920;BME280;63804;53.120;8.764;2023-07-20T06:49:27;101447.75;;;17.65;65.76
54920;BME280;63804;53.120;8.764;2023-07-20T06:51:55;101451.25;;;17.66;65.86
54920;BME280;63804;53.120;8.764;2023-07-20T06:54:22;101456.19;;;17.70;65.88
54920;BME280;63804;53.120;8.764;2023-07-20T06:56:50;101458.19;;;17.68;65.08
54920;BME280;63804;53.120;8.764;2023-07-20T06:59:21;101444.50;;;17.71;65.16
54920;BME280;63804;53.120;8.764;2023-07-20T07:01:48;101448.75;;;17.84;64.97
54920;BME280;63804;53.120;8.764;2023-07-20T07:04:15;101450.44;;;17.85;64.37
54920;BME280;63804;53.120;8.764;2023-07-20T07:06:43;101442.81;;;17.80;63.64
54920;BME280;63804;53.120;8.764;2023-07-20T07:09:11;101446.75;;;17.86;63.76
54920;BME280;63804;53.120;8.764;2023-07-20T07:11:38;101455.22;;;17.91;63.47
54920;BME280;63804;53.120;8.764;2023-07-20T07:14:06;101448.59;;;17.95;62.54
54920;BME280;63804;53.120;8.764;2023-07-20T07:16:34;101452.81;;;17.88;62.60
54920;BME280;63804;53.120;8.764;2023-07-20T07:19:05;101451.53;;;17.92;62.11
54920;BME280;63804;53.120;8.764;2023-07-20T07:21:34;101460.00;;;17.97;61.86
54920;BME280;63804;53.120;8.764;2023-07-20T07:24:01;101455.88;;;18.12;61.23
54920;BME280;63804;53.120;8.764;2023-07-20T07:26:29;101456.56;;;18.24;60.82
54920;BME280;63804;53.120;8.764;2023-07-20T07:28:56;101460.50;;;18.20;60.75
54920;BME280;63804;53.120;8.764;2023-07-20T07:31:25;101461.06;;;18.23;61.06
54920;BME280;63804;53.120;8.764;2023-07-20T07:33:52;101467.09;;;18.35;60.08
54920;BME280;63804;53.120;8.764;2023-07-20T07:36:19;101468.13;;;18.24;60.29
54920;BME280;63804;53.120;8.764;2023-07-20T07:38:47;101465.03;;;18.19;60.36
54920;BME280;63804;53.120;8.764;2023-07-20T07:41:35;101470.00;;;18.14;60.12
54920;BME280;63804;53.120;8.764;2023-07-20T07:44:02;101465.63;;;18.13;59.07
54920;BME280;63804;53.120;8.764;2023-07-20T07:46:29;101460.34;;;18.31;58.30
54920;BME280;63804;53.120;8.764;2023-07-20T07:48:57;101471.88;;;18.41;58.38
54920;BME280;63804;53.120;8.764;2023-07-20T07:51:24;101464.78;;;18.50;58.06
54920;BME280;63804;53.120;8.764;2023-07-20T07:53:52;101470.16;;;18.50;58.11
54920;BME280;63804;53.120;8.764;2023-07-20T07:56:19;101482.28;;;18.54;57.46
54920;BME280;63804;53.120;8.764;2023-07-20T07:58:50;101470.59;;;18.45;57.37
54920;BME280;63804;53.120;8.764;2023-07-20T08:01:21;101474.38;;;18.52;57.21
54920;BME280;63804;53.120;8.764;2023-07-20T08:03:49;101471.69;;;18.62;57.22
54920;BME280;63804;53.120;8.764;2023-07-20T08:06:18;101476.31;;;18.70;56.71
54920;BME280;63804;53.120;8.764;2023-07-20T08:08:45;101477.84;;;18.72;56.50
54920;BME280;63804;53.120;8.764;2023-07-20T08:11:12;101474.31;;;18.72;56.59
54920;BME280;63804;53.120;8.764;2023-07-20T08:13:41;101479.84;;;18.70;56.91
54920;BME280;63804;53.120;8.764;2023-07-20T08:16:09;101475.34;;;18.71;56.60
54920;BME280;63804;53.120;8.764;2023-07-20T08:18:36;101482.78;;;18.67;56.37
54920;BME280;63804;53.120;8.764;2023-07-20T08:21:04;101473.06;;;18.66;56.37
54920;BME280;63804;53.120;8.764;2023-07-20T08:23:31;101490.97;;;18.66;56.05
54920;BME280;63804;53.120;8.764;2023-07-20T08:25:58;101474.34;;;18.62;55.77
54920;BME280;63804;53.120;8.764;2023-07-20T08:28:26;101478.44;;;18.66;55.75
54920;BME280;63804;53.120;8.764;2023-07-20T08:30:53;101478.13;;;18.69;55.63
54920;BME280;63804;53.120;8.764;2023-07-20T08:33:21;101479.41;;;18.75;55.87
54920;BME280;63804;53.120;8.764;2023-07-20T08:35:48;101482.44;;;18.90;54.89
54920;BME280;63804;53.120;8.764;2023-07-20T08:38:16;101477.66;;;18.84;54.45
54920;BME280;63804;53.120;8.764;2023-07-20T08:40:46;101474.19;;;18.73;55.04
54920;BME280;63804;53.120;8.764;2023-07-20T08:43:14;101490.25;;;18.83;55.16
54920;BME280;63804;53.120;8.764;2023-07-20T08:45:46;101493.47;;;18.87;54.57
54920;BME280;63804;53.120;8.764;2023-07-20T08:48:15;101493.31;;;18.88;54.41
54920;BME280;63804;53.120;8.764;2023-07-20T08:50:43;101487.53;;;18.93;53.57
54920;BME280;63804;53.120;8.764;2023-07-20T08:53:12;101493.94;;;19.00;53.26
54920;BME280;63804;53.120;8.764;2023-07-20T08:55:42;101496.56;;;19.19;53.00
54920;BME280;63804;53.120;8.764;2023-07-20T08:58:12;101497.69;;;19.17;52.36
54920;BME280;63804;53.120;8.764;2023-07-20T09:00:41;101494.84;;;19.18;52.06
54920;BME280;63804;53.120;8.764;2023-07-20T09:03:12;101496.31;;;19.13;52.05
54920;BME280;63804;53.120;8.764;2023-07-20T09:05:41;101494.84;;;19.18;52.04
54920;BME280;63804;53.120;8.764;2023-07-20T09:08:09;101498.38;;;19.19;52.16
54920;BME280;63804;53.120;8.764;2023-07-20T09:10:36;101501.91;;;19.19;52.43
54920;BME280;63804;53.120;8.764;2023-07-20T09:13:03;101491.09;;;19.29;52.17
54920;BME280;63804;53.120;8.764;2023-07-20T09:15:30;101497.31;;;19.30;51.67
54920;BME280;63804;53.120;8.764;2023-07-20T09:18:01;101499.19;;;19.47;51.37
54920;BME280;63804;53.120;8.764;2023-07-20T09:20:31;101498.25;;;19.56;51.83
54920;BME280;63804;53.120;8.764;2023-07-20T09:22:59;101492.88;;;19.56;51.83
54920;BME280;63804;53.120;8.764;2023-07-20T09:25:27;101494.88;;;19.54;52.31
54920;BME280;63804;53.120;8.764;2023-07-20T09:28:02;101486.66;;;19.56;52.22
54920;BME280;63804;53.120;8.764;2023-07-20T09:30:31;101497.25;;;19.57;52.43
54920;BME280;63804;53.120;8.764;2023-07-20T09:32:59;101497.34;;;19.47;52.38
54920;BME280;63804;53.120;8.764;2023-07-20T09:35:28;101488.03;;;19.42;51.31
54920;BME280;63804;53.120;8.764;2023-07-20T09:38:08;101487.50;;;19.56;50.73
54920;BME280;63804;53.120;8.764;2023-07-20T09:40:39;101482.44;;;19.89;49.68
54920;BME280;63804;53.120;8.764;2023-07-20T09:43:10;101492.22;;;20.16;49.66
54920;BME280;63804;53.120;8.764;2023-07-20T09:45:41;101483.41;;;20.32;49.16
54920;BME280;63804;53.120;8.764;2023-07-20T09:48:12;101491.81;;;20.29;49.78
54920;BME280;63804;53.120;8.764;2023-07-20T09:50:51;101490.63;;;20.05;50.35
54920;BME280;63804;53.120;8.764;2023-07-20T09:53:19;101497.56;;;20.08;51.25
54920;BME280;63804;53.120;8.764;2023-07-20T09:55:47;101490.13;;;20.28;50.79
54920;BME280;63804;53.120;8.764;2023-07-20T09:58:16;101480.03;;;20.30;49.97
54920;BME280;63804;53.120;8.764;2023-07-20T10:00:45;101498.09;;;20.11;50.21
54920;BME280;63804;53.120;8.764;2023-07-20T10:03:22;101498.41;;;19.90;51.24
54920;BME280;63804;53.120;8.764;2023-07-20T10:06:07;101508.19;;;19.74;54.93
54920;BME280;63804;53.120;8.764;2023-07-20T10:08:39;101504.47;;;19.39;55.21
54920;BME280;63804;53.120;8.764;2023-07-20T10:11:11;101502.91;;;19.18;55.98
54920;BME280;63804;53.120;8.764;2023-07-20T10:13:43;101503.59;;;19.20;55.93
54920;BME280;63804;53.120;8.764;2023-07-20T10:16:17;101507.22;;;19.29;56.06
54920;BME280;63804;53.120;8.764;2023-07-20T10:19:07;101504.06;;;19.34;53.80
54920;BME280;63804;53.120;8.764;2023-07-20T10:21:47;101499.41;;;19.36;54.15
54920;BME280;63804;53.120;8.764;2023-07-20T10:24:22;101508.47;;;19.35;54.41
54920;BME280;63804;53.120;8.764;2023-07-20T10:26:50;101491.88;;;19.39;54.70
54920;BME280;63804;53.120;8.764;2023-07-20T10:29:18;101511.66;;;19.38;55.63
54920;BME280;63804;53.120;8.764;2023-07-20T10:31:46;101507.47;;;19.54;55.77
54920;BME280;63804;53.120;8.764;2023-07-20T10:34:14;101502.47;;;19.41;56.04
54920;BME280;63804;53.120;8.764;2023-07-20T10:36:45;101502.38;;;19.33;56.32
54920;BME280;63804;53.120;8.764;2023-07-20T10:39:26;101495.66;;;19.46;56.35
54920;BME280;63804;53.120;8.764;2023-07-20T10:42:07;101490.69;;;19.69;56.32
54920;BME280;63804;53.120;8.764;2023-07-20T10:44:39;101491.94;;;20.01;55.29
54920;BME280;63804;53.120;8.764;2023-07-20T10:47:11;101494.09;;;20.15;54.53
54920;BME280;63804;53.120;8.764;2023-07-20T10:49:59;101489.63;;;20.32;53.27
54920;BME280;63804;53.120;8.764;2023-07-20T10:52:38;101483.59;;;20.30;52.53
54920;BME280;63804;53.120;8.764;2023-07-20T10:55:15;101482.84;;;20.46;52.44
54920;BME280;63804;53.120;8.764;2023-07-20T10:57:43;101487.22;;;20.47;52.57
54920;BME280;63804;53.120;8.764;2023-07-20T11:00:13;101485.06;;;20.51;52.40
54920;BME280;63804;53.120;8.764;2023-07-20T11:02:58;101483.31;;;20.41;52.70
54920;BME280;63804;53.120;8.764;2023-07-20T11:05:38;101496.81;;;20.24;53.07
54920;BME280;63804;53.120;8.764;2023-07-20T11:08:10;101493.09;;;19.99;52.93
54920;BME280;63804;53.120;8.764;2023-07-20T11:10:38;101499.91;;;19.85;53.73
54920;BME280;63804;53.120;8.764;2023-07-20T11:13:19;101495.44;;;19.76;54.09
54920;BME280;63804;53.120;8.764;2023-07-20T11:18:27;101498.34;;;20.00;53.39
54920;BME280;63804;53.120;8.764;2023-07-20T11:20:55;101497.06;;;20.12;53.10
54920;BME280;63804;53.120;8.764;2023-07-20T11:23:23;101484.34;;;20.49;53.10
54920;BME280;63804;53.120;8.764;2023-07-20T11:25:50;101478.13;;;20.74;51.66
54920;BME280;63804;53.120;8.764;2023-07-20T11:28:17;101475.00;;;20.95;51.19
54920;BME280;63804;53.120;8.764;2023-07-20T11:30:45;101476.94;;;21.27;50.64
54920;BME280;63804;53.120;8.764;2023-07-20T11:33:12;101480.53;;;21.44;50.90
54920;BME280;63804;53.120;8.764;2023-07-20T11:35:42;101475.59;;;21.31;51.12
54920;BME280;63804;53.120;8.764;2023-07-20T11:38:12;101479.44;;;21.21;51.11
54920;BME280;63804;53.120;8.764;2023-07-20T11:40:46;101483.72;;;20.89;51.90
54920;BME280;63804;53.120;8.764;2023-07-20T11:43:13;101468.53;;;20.45;52.97
54920;BME280;63804;53.120;8.764;2023-07-20T11:45:45;101474.03;;;20.36;53.12
54920;BME280;63804;53.120;8.764;2023-07-20T11:48:16;101482.28;;;20.34;53.88
54920;BME280;63804;53.120;8.764;2023-07-20T11:50:44;101477.25;;;20.13;53.90
54920;BME280;63804;53.120;8.764;2023-07-20T11:53:11;101486.69;;;20.17;53.09
54920;BME280;63804;53.120;8.764;2023-07-20T11:55:40;101491.28;;;20.25;52.78
54920;BME280;63804;53.120;8.764;2023-07-20T11:58:09;101497.75;;;20.14;53.20
54920;BME280;63804;53.120;8.764;2023-07-20T12:00:38;101495.31;;;20.03;52.20
54920;BME280;63804;53.120;8.764;2023-07-20T12:03:07;101491.25;;;19.99;52.54
54920;BME280;63804;53.120;8.764;2023-07-20T12:05:34;101506.22;;;20.02;52.42
54920;BME280;63804;53.120;8.764;2023-07-20T12:08:21;101493.69;;;20.10;51.43
54920;BME280;63804;53.120;8.764;2023-07-20T12:10:49;101483.91;;;20.53;49.36
54920;BME280;63804;53.120;8.764;2023-07-20T12:13:17;101477.47;;;20.80;48.41
54920;BME280;63804;53.120;8.764;2023-07-20T12:15:44;101481.34;;;20.78;48.65
54920;BME280;63804;53.120;8.764;2023-07-20T12:18:11;101485.94;;;20.93;48.43
54920;BME280;63804;53.120;8.764;2023-07-20T12:20:39;101486.47;;;21.05;48.83
54920;BME280;63804;53.120;8.764;2023-07-20T12:23:11;101491.19;;;21.03;48.47
54920;BME280;63804;53.120;8.764;2023-07-20T12:25:45;101500.06;;;20.87;48.28
54920;BME280;63804;53.120;8.764;2023-07-20T12:28:17;101491.28;;;20.85;48.61
54920;BME280;63804;53.120;8.764;2023-07-20T12:30:47;101491.69;;;20.99;48.77
54920;BME280;63804;53.120;8.764;2023-07-20T12:33:23;101493.69;;;20.97;49.65
54920;BME280;63804;53.120;8.764;2023-07-20T12:35:51;101489.97;;;20.98;50.20
54920;BME280;63804;53.120;8.764;2023-07-20T12:38:22;101489.97;;;20.98;50.41
54920;BME280;63804;53.120;8.764;2023-07-20T12:40:50;101491.13;;;20.87;49.89
54920;BME280;63804;53.120;8.764;2023-07-20T12:43:18;101494.28;;;20.48;50.50
54920;BME280;63804;53.120;8.764;2023-07-20T12:45:45;101491.72;;;20.38;50.29
54920;BME280;63804;53.120;8.764;2023-07-20T12:48:12;101481.66;;;20.49;50.08
54920;BME280;63804;53.120;8.764;2023-07-20T12:50:40;101480.81;;;20.74;49.44
54920;BME280;63804;53.120;8.764;2023-07-20T12:53:07;101472.66;;;21.00;49.22
54920;BME280;63804;53.120;8.764;2023-07-20T12:55:34;101473.66;;;20.91;47.95
54920;BME280;63804;53.120;8.764;2023-07-20T12:58:02;101475.97;;;20.86;47.81
54920;BME280;63804;53.120;8.764;2023-07-20T13:00:29;101468.22;;;20.83;48.04
54920;BME280;63804;53.120;8.764;2023-07-20T13:02:56;101462.38;;;20.87;48.39
54920;BME280;63804;53.120;8.764;2023-07-20T13:05:27;101454.44;;;20.86;48.51